sensor_id;sensor_type;location;lat;lon;timestamp;temperature;humidity
33825;DHT22;20127;48.962;8.342;2023-09-19T00:00:26;17.20;99.90
33825;DHT22;20127;48.962;8.342;2023-09-19T00:03:28;17.20;99.90
33825;DHT22;20127;48.962;8.342;2023-09-19T00:06:31;17.20;99.90
33825;DHT22;20127;48.962;8.342;2023-09-19T00:09:33;17.20;99.90
33825;DHT22;20127;48.962;8.342;2023-09-19T00:12:42;17.20;99.90
33825;DHT22;20127;48.962;8.342;2023-09-19T00:15:46;17.20;99.90
33825;DHT22;20127;48.962;8.342;2023-09-19T00:18:48;17.10;99.90
33825;DHT22;20127;48.962;8.342;2023-09-19T00:21:50;17.10;99.90
33825;DHT22;20127;48.962;8.342;2023-09-19T00:24:53;17.10;99.90
33825;DHT22;20127;48.962;8.342;2023-09-19T00:27:56;17.10;99.90
33825;DHT22;20127;48.962;8.342;2023-09-19T00:30:58;17.00;99.90
33825;DHT22;20127;48.962;8.342;2023-09-19T00:34:01;17.00;99.90
33825;DHT22;20127;48.962;8.342;2023-09-19T00:37:05;17.00;99.90
33825;DHT22;20127;48.962;8.342;2023-09-19T00:40:07;17.00;99.90
33825;DHT22;20127;48.962;8.342;2023-09-19T00:43:13;17.00;99.90
33825;DHT22;20127;48.962;8.342;2023-09-19T00:46:16;17.00;99.90
33825;DHT22;20127;48.962;8.342;2023-09-19T00:49:18;17.00;99.90
33825;DHT22;20127;48.962;8.342;2023-09-19T00:52:22;17.10;99.90
33825;DHT22;20127;48.962;8.342;2023-09-19T00:55:25;17.10;99.90
33825;DHT22;20127;48.962;8.342;2023-09-19T00:58:29;17.20;99.90
33825;DHT22;20127;48.962;8.342;2023-09-19T01:01:34;17.20;99.90
33825;DHT22;20127;48.962;8.342;2023-09-19T01:04:40;17.30;99.90
33825;DHT22;20127;48.962;8.342;2023-09-19T01:07:42;17.20;99.90
33825;DHT22;20127;48.962;8.342;2023-09-19T01:10:51;17.30;99.90
33825;DHT22;20127;48.962;8.342;2023-09-19T01:14:00;17.30;99.90
33825;DHT22;20127;48.962;8.342;2023-09-19T01:17:09;17.40;99.90
33825;DHT22;20127;48.962;8.342;2023-09-19T01:20:26;17.40;99.90
33825;DHT22;20127;48.962;8.342;2023-09-19T01:23:39;17.50;99.90
33825;DHT22;20127;48.962;8.342;2023-09-19T01:27:06;17.50;99.90
33825;DHT22;20127;48.962;8.342;2023-09-19T01:30:21;17.50;99.90
33825;DHT22;20127;48.962;8.342;2023-09-19T01:33:23;17.60;99.90
33825;DHT22;20127;48.962;8.342;2023-09-19T01:36:31;17.60;99.90
33825;DHT22;20127;48.962;8.342;2023-09-19T01:39:36;17.60;99.90
33825;DHT22;20127;48.962;8.342;2023-09-19T01:42:42;17.70;99.90
33825;DHT22;20127;48.962;8.342;2023-09-19T01:45:50;17.60;99.90
33825;DHT22;20127;48.962;8.342;2023-09-19T01:49:01;17.60;99.90
33825;DHT22;20127;48.962;8.342;2023-09-19T01:52:10;17.50;99.90
33825;DHT22;20127;48.962;8.342;2023-09-19T01:55:14;17.50;99.90
33825;DHT22;20127;48.962;8.342;2023-09-19T01:58:21;17.50;99.90
33825;DHT22;20127;48.962;8.342;2023-09-19T02:01:25;17.50;99.90
33825;DHT22;20127;48.962;8.342;2023-09-19T02:04:27;17.60;99.90
33825;DHT22;20127;48.962;8.342;2023-09-19T02:07:29;17.60;99.90
33825;DHT22;20127;48.962;8.342;2023-09-19T02:10:32;17.60;99.90
33825;DHT22;20127;48.962;8.342;2023-09-19T02:13:34;17.60;99.90
33825;DHT22;20127;48.962;8.342;2023-09-19T02:16:37;17.60;99.90
33825;DHT22;20127;48.962;8.342;2023-09-19T02:19:39;17.60;99.90
33825;DHT22;20127;48.962;8.342;2023-09-19T02:22:42;17.60;99.90
33825;DHT22;20127;48.962;8.342;2023-09-19T02:25:51;17.60;99.90
33825;DHT22;20127;48.962;8.342;2023-09-19T02:28:54;17.60;99.90
33825;DHT22;20127;48.962;8.342;2023-09-19T02:31:57;17.60;99.90
33825;DHT22;20127;48.962;8.342;2023-09-19T02:34:59;17.60;99.90
33825;DHT22;20127;48.962;8.342;2023-09-19T02:38:01;17.60;99.90
33825;DHT22;20127;48.962;8.342;2023-09-19T02:41:06;17.60;99.90
33825;DHT22;20127;48.962;8.342;2023-09-19T02:44:08;17.60;99.90
33825;DHT22;20127;48.962;8.342;2023-09-19T02:47:11;17.60;99.90
33825;DHT22;20127;48.962;8.342;2023-09-19T02:50:16;17.50;99.90
33825;DHT22;20127;48.962;8.342;2023-09-19T02:53:18;17.50;99.90
33825;DHT22;20127;48.962;8.342;2023-09-19T02:56:20;17.50;99.90
33825;DHT22;20127;48.962;8.342;2023-09-19T02:59:23;17.50;99.90
33825;DHT22;20127;48.962;8.342;2023-09-19T03:02:26;17.50;99.90
33825;DHT22;20127;48.962;8.342;2023-09-19T03:05:29;17.50;99.90
33825;DHT22;20127;48.962;8.342;2023-09-19T03:08:32;17.40;99.90
33825;DHT22;20127;48.962;8.342;2023-09-19T03:11:37;17.40;99.90
33825;DHT22;20127;48.962;8.342;2023-09-19T03:14:40;17.40;99.90
33825;DHT22;20127;48.962;8.342;2023-09-19T03:17:44;17.30;99.90
33825;DHT22;20127;48.962;8.342;2023-09-19T03:20:52;17.20;99.90
33825;DHT22;20127;48.962;8.342;2023-09-19T03:23:55;17.30;99.90
33825;DHT22;20127;48.962;8.342;2023-09-19T03:26:57;17.30;99.90
33825;DHT22;20127;48.962;8.342;2023-09-19T03:29:59;17.30;99.90
33825;DHT22;20127;48.962;8.342;2023-09-19T03:33:02;17.20;99.90
33825;DHT22;20127;48.962;8.342;2023-09-19T03:36:05;17.20;99.90
33825;DHT22;20127;48.962;8.342;2023-09-19T03:39:07;17.20;99.90
33825;DHT22;20127;48.962;8.342;2023-09-19T03:42:09;17.10;99.90
33825;DHT22;20127;48.962;8.342;2023-09-19T03:45:11;17.10;99.90
33825;DHT22;20127;48.962;8.342;2023-09-19T03:48:14;17.10;99.90
33825;DHT22;20127;48.962;8.342;2023-09-19T03:51:16;17.10;99.90
33825;DHT22;20127;48.962;8.342;2023-09-19T03:54:17;17.10;99.90
33825;DHT22;20127;48.962;8.342;2023-09-19T03:57:19;17.00;99.90
33825;DHT22;20127;48.962;8.342;2023-09-19T04:00:22;17.00;99.90
33825;DHT22;20127;48.962;8.342;2023-09-19T04:03:28;17.00;99.90
33825;DHT22;20127;48.962;8.342;2023-09-19T04:06:35;16.90;99.90
33825;DHT22;20127;48.962;8.342;2023-09-19T04:09:37;16.90;99.90
33825;DHT22;20127;48.962;8.342;2023-09-19T04:12:38;16.90;99.90
33825;DHT22;20127;48.962;8.342;2023-09-19T04:15:40;16.80;99.90
33825;DHT22;20127;48.962;8.342;2023-09-19T04:18:43;16.90;99.90
33825;DHT22;20127;48.962;8.342;2023-09-19T04:21:45;16.90;99.90
33825;DHT22;20127;48.962;8.342;2023-09-19T04:24:46;17.00;99.90
33825;DHT22;20127;48.962;8.342;2023-09-19T04:27:48;17.00;99.90
33825;DHT22;20127;48.962;8.342;2023-09-19T04:30:50;17.00;99.90
33825;DHT22;20127;48.962;8.342;2023-09-19T04:33:53;17.00;99.90
33825;DHT22;20127;48.962;8.342;2023-09-19T04:36:55;17.00;99.90
33825;DHT22;20127;48.962;8.342;2023-09-19T04:39:58;17.00;99.90
33825;DHT22;20127;48.962;8.342;2023-09-19T04:43:00;17.00;99.90
33825;DHT22;20127;48.962;8.342;2023-09-19T04:46:03;17.00;99.90
33825;DHT22;20127;48.962;8.342;2023-09-19T04:49:08;17.00;99.90
33825;DHT22;20127;48.962;8.342;2023-09-19T04:52:10;17.00;99.90
33825;DHT22;20127;48.962;8.342;2023-09-19T04:55:12;17.00;99.90
33825;DHT22;20127;48.962;8.342;2023-09-19T04:58:17;17.00;99.90
33825;DHT22;20127;48.962;8.342;2023-09-19T05:01:20;17.00;99.90
33825;DHT22;20127;48.962;8.342;2023-09-19T05:04:24;17.00;99.90
33825;DHT22;20127;48.962;8.342;2023-09-19T05:07:26;17.00;99.90
33825;DHT22;20127;48.962;8.342;2023-09-19T05:10:28;17.00;99.90
33825;DHT22;20127;48.962;8.342;2023-09-19T05:13:30;17.00;99.90
33825;DHT22;20127;48.962;8.342;2023-09-19T05:16:31;16.90;99.90
33825;DHT22;20127;48.962;8.342;2023-09-19T05:19:35;16.90;99.90
33825;DHT22;20127;48.962;8.342;2023-09-19T05:22:37;16.80;99.90
33825;DHT22;20127;48.962;8.342;2023-09-19T05:25:41;16.80;99.90
33825;DHT22;20127;48.962;8.342;2023-09-19T05:28:43;16.80;99.90
33825;DHT22;20127;48.962;8.342;2023-09-19T05:31:45;16.80;99.90
33825;DHT22;20127;48.962;8.342;2023-09-19T05:34:48;16.80;99.90
33825;DHT22;20127;48.962;8.342;2023-09-19T05:37:54;16.80;99.90
33825;DHT22;20127;48.962;8.342;2023-09-19T05:40:56;16.70;99.90
33825;DHT22;20127;48.962;8.342;2023-09-19T05:43:58;16.80;99.90
33825;DHT22;20127;48.962;8.342;2023-09-19T05:47:00;16.80;99.90
33825;DHT22;20127;48.962;8.342;2023-09-19T05:50:03;16.80;99.90
33825;DHT22;20127;48.962;8.342;2023-09-19T05:53:05;16.80;99.90
33825;DHT22;20127;48.962;8.342;2023-09-19T05:56:07;16.90;99.90
33825;DHT22;20127;48.962;8.342;2023-09-19T05:59:11;16.90;99.90
33825;DHT22;20127;48.962;8.342;2023-09-19T06:02:14;16.90;99.90
33825;DHT22;20127;48.962;8.342;2023-09-19T06:05:17;16.90;99.90
33825;DHT22;20127;48.962;8.342;2023-09-19T06:08:19;16.90;99.90
33825;DHT22;20127;48.962;8.342;2023-09-19T06:11:20;17.00;99.90
33825;DHT22;20127;48.962;8.342;2023-09-19T06:14:23;17.00;99.90
33825;DHT22;20127;48.962;8.342;2023-09-19T06:17:25;17.00;99.90
33825;DHT22;20127;48.962;8.342;2023-09-19T06:20:29;17.10;99.90
33825;DHT22;20127;48.962;8.342;2023-09-19T06:23:33;17.10;99.90
33825;DHT22;20127;48.962;8.342;2023-09-19T06:26:35;17.10;99.90
33825;DHT22;20127;48.962;8.342;2023-09-19T06:29:37;17.10;99.90
33825;DHT22;20127;48.962;8.342;2023-09-19T06:32:39;17.10;99.90
33825;DHT22;20127;48.962;8.342;2023-09-19T06:35:45;17.10;99.90
33825;DHT22;20127;48.962;8.342;2023-09-19T06:38:48;17.10;99.90
33825;DHT22;20127;48.962;8.342;2023-09-19T06:41:51;17.20;99.90
33825;DHT22;20127;48.962;8.342;2023-09-19T06:44:54;17.20;99.90
33825;DHT22;20127;48.962;8.342;2023-09-19T06:47:56;17.30;99.90
33825;DHT22;20127;48.962;8.342;2023-09-19T06:51:02;17.30;99.90
33825;DHT22;20127;48.962;8.342;2023-09-19T06:54:05;17.40;99.90
33825;DHT22;20127;48.962;8.342;2023-09-19T06:57:07;17.40;99.90
33825;DHT22;20127;48.962;8.342;2023-09-19T07:00:11;17.50;99.90
33825;DHT22;20127;48.962;8.342;2023-09-19T07:03:18;17.70;99.90
33825;DHT22;20127;48.962;8.342;2023-09-19T07:06:23;17.90;99.90
33825;DHT22;20127;48.962;8.342;2023-09-19T07:09:25;17.90;99.90
33825;DHT22;20127;48.962;8.342;2023-09-19T07:12:27;17.90;99.90
33825;DHT22;20127;48.962;8.342;2023-09-19T07:15:32;18.10;99.90
33825;DHT22;20127;48.962;8.342;2023-09-19T07:18:38;18.40;99.90
33825;DHT22;20127;48.962;8.342;2023-09-19T07:21:41;18.70;99.90
33825;DHT22;20127;48.962;8.342;2023-09-19T07:24:42;19.00;99.90
33825;DHT22;20127;48.962;8.342;2023-09-19T07:27:44;19.30;99.90
33825;DHT22;20127;48.962;8.342;2023-09-19T07:30:46;19.60;99.90
33825;DHT22;20127;48.962;8.342;2023-09-19T07:33:47;19.80;99.90
33825;DHT22;20127;48.962;8.342;2023-09-19T07:36:50;20.00;99.90
33825;DHT22;20127;48.962;8.342;2023-09-19T07:39:52;20.00;99.90
33825;DHT22;20127;48.962;8.342;2023-09-19T07:42:54;20.20;99.90
33825;DHT22;20127;48.962;8.342;2023-09-19T07:45:56;20.70;99.90
33825;DHT22;20127;48.962;8.342;2023-09-19T07:49:01;20.90;99.90
33825;DHT22;20127;48.962;8.342;2023-09-19T07:52:04;20.90;99.90
33825;DHT22;20127;48.962;8.342;2023-09-19T07:55:06;21.20;99.90
33825;DHT22;20127;48.962;8.342;2023-09-19T07:58:11;21.40;99.90
33825;DHT22;20127;48.962;8.342;2023-09-19T08:01:14;21.90;99.90
33825;DHT22;20127;48.962;8.342;2023-09-19T08:04:16;22.20;99.90
33825;DHT22;20127;48.962;8.342;2023-09-19T08:07:20;22.70;99.90
33825;DHT22;20127;48.962;8.342;2023-09-19T08:10:23;23.00;99.90
33825;DHT22;20127;48.962;8.342;2023-09-19T08:13:28;23.20;99.90
33825;DHT22;20127;48.962;8.342;2023-09-19T08:16:31;23.70;99.90
33825;DHT22;20127;48.962;8.342;2023-09-19T08:19:33;24.00;99.90
33825;DHT22;20127;48.962;8.342;2023-09-19T08:22:36;24.00;99.90
33825;DHT22;20127;48.962;8.342;2023-09-19T08:25:38;23.90;99.90
33825;DHT22;20127;48.962;8.342;2023-09-19T08:28:40;23.70;99.90
33825;DHT22;20127;48.962;8.342;2023-09-19T08:31:42;23.70;99.90
33825;DHT22;20127;48.962;8.342;2023-09-19T08:34:43;23.70;99.90
33825;DHT22;20127;48.962;8.342;2023-09-19T08:37:46;23.80;99.90
33825;DHT22;20127;48.962;8.342;2023-09-19T08:40:48;23.40;99.90
33825;DHT22;20127;48.962;8.342;2023-09-19T08:43:50;23.10;99.90
33825;DHT22;20127;48.962;8.342;2023-09-19T08:46:55;23.30;99.90
33825;DHT22;20127;48.962;8.342;2023-09-19T08:50:01;23.40;99.90
33825;DHT22;20127;48.962;8.342;2023-09-19T08:53:11;23.30;99.90
33825;DHT22;20127;48.962;8.342;2023-09-19T08:56:12;22.90;99.90
33825;DHT22;20127;48.962;8.342;2023-09-19T08:59:16;22.60;99.90
33825;DHT22;20127;48.962;8.342;2023-09-19T09:02:25;22.30;99.90
33825;DHT22;20127;48.962;8.342;2023-09-19T09:05:28;22.50;99.90
33825;DHT22;20127;48.962;8.342;2023-09-19T09:08:32;22.50;99.90
33825;DHT22;20127;48.962;8.342;2023-09-19T09:11:34;22.80;99.90
33825;DHT22;20127;48.962;8.342;2023-09-19T09:14:40;23.30;99.90
33825;DHT22;20127;48.962;8.342;2023-09-19T09:17:46;23.70;99.90
33825;DHT22;20127;48.962;8.342;2023-09-19T09:20:49;24.00;99.90
33825;DHT22;20127;48.962;8.342;2023-09-19T09:23:52;24.00;99.90
33825;DHT22;20127;48.962;8.342;2023-09-19T09:26:54;24.40;99.90
33825;DHT22;20127;48.962;8.342;2023-09-19T09:29:57;24.90;99.90
33825;DHT22;20127;48.962;8.342;2023-09-19T09:33:08;25.20;99.90
33825;DHT22;20127;48.962;8.342;2023-09-19T09:36:11;25.30;99.90
33825;DHT22;20127;48.962;8.342;2023-09-19T09:39:14;25.30;99.90
33825;DHT22;20127;48.962;8.342;2023-09-19T09:42:32;25.40;99.90
33825;DHT22;20127;48.962;8.342;2023-09-19T09:45:35;25.70;99.90
33825;DHT22;20127;48.962;8.342;2023-09-19T09:48:39;25.70;99.90
33825;DHT22;20127;48.962;8.342;2023-09-19T09:51:40;25.60;99.90
33825;DHT22;20127;48.962;8.342;2023-09-19T09:58:17;25.20;98.60
33825;DHT22;20127;48.962;8.342;2023-09-19T10:01:20;24.80;99.90
33825;DHT22;20127;48.962;8.342;2023-09-19T10:04:29;25.00;99.90
33825;DHT22;20127;48.962;8.342;2023-09-19T10:07:36;25.10;99.90
33825;DHT22;20127;48.962;8.342;2023-09-19T10:10:42;25.20;99.90
33825;DHT22;20127;48.962;8.342;2023-09-19T10:13:55;25.10;99.70
33825;DHT22;20127;48.962;8.342;2023-09-19T10:16:58;25.10;98.10
33825;DHT22;20127;48.962;8.342;2023-09-19T10:20:05;25.00;98.10
33825;DHT22;20127;48.962;8.342;2023-09-19T10:23:20;25.00;98.40
33825;DHT22;20127;48.962;8.342;2023-09-19T10:26:23;25.40;99.00
33825;DHT22;20127;48.962;8.342;2023-09-19T10:29:29;25.70;98.30
33825;DHT22;20127;48.962;8.342;2023-09-19T10:32:40;25.70;98.10
33825;DHT22;20127;48.962;8.342;2023-09-19T10:35:43;25.70;97.30
33825;DHT22;20127;48.962;8.342;2023-09-19T10:38:45;25.20;97.20
33825;DHT22;20127;48.962;8.342;2023-09-19T10:41:51;24.90;97.10
33825;DHT22;20127;48.962;8.342;2023-09-19T10:45:02;24.70;97.20
33825;DHT22;20127;48.962;8.342;2023-09-19T10:48:08;24.70;96.40
33825;DHT22;20127;48.962;8.342;2023-09-19T10:51:12;24.90;96.40
33825;DHT22;20127;48.962;8.342;2023-09-19T10:54:17;24.90;95.00
33825;DHT22;20127;48.962;8.342;2023-09-19T10:57:20;24.90;94.60
33825;DHT22;20127;48.962;8.342;2023-09-19T11:00:26;24.60;93.40
33825;DHT22;20127;48.962;8.342;2023-09-19T11:03:28;24.50;94.70
33825;DHT22;20127;48.962;8.342;2023-09-19T11:06:31;24.60;93.40
33825;DHT22;20127;48.962;8.342;2023-09-19T11:09:46;24.40;92.30
33825;DHT22;20127;48.962;8.342;2023-09-19T11:12:48;24.10;91.20
33825;DHT22;20127;48.962;8.342;2023-09-19T11:16:04;24.00;91.50
33825;DHT22;20127;48.962;8.342;2023-09-19T11:19:07;23.90;88.60
33825;DHT22;20127;48.962;8.342;2023-09-19T11:22:11;23.80;89.50
33825;DHT22;20127;48.962;8.342;2023-09-19T11:25:41;24.00;89.60
33825;DHT22;20127;48.962;8.342;2023-09-19T11:28:48;24.30;88.00
33825;DHT22;20127;48.962;8.342;2023-09-19T11:32:12;24.40;86.80
33825;DHT22;20127;48.962;8.342;2023-09-19T11:35:16;24.50;86.20
33825;DHT22;20127;48.962;8.342;2023-09-19T11:38:58;24.50;84.70
33825;DHT22;20127;48.962;8.342;2023-09-19T11:46:01;25.60;83.30
33825;DHT22;20127;48.962;8.342;2023-09-19T11:49:07;26.10;80.60
33825;DHT22;20127;48.962;8.342;2023-09-19T11:52:09;26.30;78.40
33825;DHT22;20127;48.962;8.342;2023-09-19T11:55:14;26.70;77.60
33825;DHT22;20127;48.962;8.342;2023-09-19T11:58:16;26.70;76.90
33825;DHT22;20127;48.962;8.342;2023-09-19T12:01:22;26.80;76.30
33825;DHT22;20127;48.962;8.342;2023-09-19T12:04:36;27.00;76.20
33825;DHT22;20127;48.962;8.342;2023-09-19T12:07:47;27.30;74.90
33825;DHT22;20127;48.962;8.342;2023-09-19T12:10:50;27.50;73.90
33825;DHT22;20127;48.962;8.342;2023-09-19T12:13:52;27.00;71.90
33825;DHT22;20127;48.962;8.342;2023-09-19T12:16:57;26.50;72.10
33825;DHT22;20127;48.962;8.342;2023-09-19T12:20:03;26.60;71.90
33825;DHT22;20127;48.962;8.342;2023-09-19T12:23:13;26.40;70.40
33825;DHT22;20127;48.962;8.342;2023-09-19T12:26:15;26.20;70.70
33825;DHT22;20127;48.962;8.342;2023-09-19T12:29:20;25.80;70.50
33825;DHT22;20127;48.962;8.342;2023-09-19T12:32:34;25.70;70.70
33825;DHT22;20127;48.962;8.342;2023-09-19T12:35:37;25.90;69.70
33825;DHT22;20127;48.962;8.342;2023-09-19T12:38:47;25.70;70.10
33825;DHT22;20127;48.962;8.342;2023-09-19T12:41:50;25.50;69.70
33825;DHT22;20127;48.962;8.342;2023-09-19T12:44:52;25.40;70.30
33825;DHT22;20127;48.962;8.342;2023-09-19T12:48:18;25.80;71.00
33825;DHT22;20127;48.962;8.342;2023-09-19T12:51:23;26.50;69.80
33825;DHT22;20127;48.962;8.342;2023-09-19T12:54:39;26.90;68.90
33825;DHT22;20127;48.962;8.342;2023-09-19T12:57:41;27.00;67.20
33825;DHT22;20127;48.962;8.342;2023-09-19T13:00:45;27.20;66.10
33825;DHT22;20127;48.962;8.342;2023-09-19T13:04:11;27.20;65.20
33825;DHT22;20127;48.962;8.342;2023-09-19T13:07:40;26.70;64.30
33825;DHT22;20127;48.962;8.342;2023-09-19T13:11:00;26.70;66.20
33825;DHT22;20127;48.962;8.342;2023-09-19T13:14:14;26.90;65.00
33825;DHT22;20127;48.962;8.342;2023-09-19T13:17:16;27.20;63.00
33825;DHT22;20127;48.962;8.342;2023-09-19T13:20:23;27.20;63.00
33825;DHT22;20127;48.962;8.342;2023-09-19T13:23:30;27.40;62.70
33825;DHT22;20127;48.962;8.342;2023-09-19T13:26:32;27.60;62.50
33825;DHT22;20127;48.962;8.342;2023-09-19T13:29:34;27.50;62.50
33825;DHT22;20127;48.962;8.342;2023-09-19T13:36:34;27.90;61.50
33825;DHT22;20127;48.962;8.342;2023-09-19T13:39:37;28.00;61.10
33825;DHT22;20127;48.962;8.342;2023-09-19T13:42:43;28.00;60.10
33825;DHT22;20127;48.962;8.342;2023-09-19T13:45:44;28.00;60.10
33825;DHT22;20127;48.962;8.342;2023-09-19T13:48:47;28.30;60.00
33825;DHT22;20127;48.962;8.342;2023-09-19T13:51:54;27.90;58.90
33825;DHT22;20127;48.962;8.342;2023-09-19T13:54:58;27.90;59.70
33825;DHT22;20127;48.962;8.342;2023-09-19T13:58:00;28.10;59.50
33825;DHT22;20127;48.962;8.342;2023-09-19T14:01:02;28.40;59.50
33825;DHT22;20127;48.962;8.342;2023-09-19T14:04:04;29.10;58.70
33825;DHT22;20127;48.962;8.342;2023-09-19T14:07:06;29.30;58.20
33825;DHT22;20127;48.962;8.342;2023-09-19T14:10:11;29.20;57.60
33825;DHT22;20127;48.962;8.342;2023-09-19T14:13:13;29.30;57.80
33825;DHT22;20127;48.962;8.342;2023-09-19T14:16:16;29.50;57.50
33825;DHT22;20127;48.962;8.342;2023-09-19T14:19:18;29.60;56.80
33825;DHT22;20127;48.962;8.342;2023-09-19T14:22:20;29.40;56.10
33825;DHT22;20127;48.962;8.342;2023-09-19T14:25:23;28.90;56.80
33825;DHT22;20127;48.962;8.342;2023-09-19T14:28:25;28.40;56.80
33825;DHT22;20127;48.962;8.342;2023-09-19T14:31:27;28.00;56.70
33825;DHT22;20127;48.962;8.342;2023-09-19T14:34:28;27.80;57.40
33825;DHT22;20127;48.962;8.342;2023-09-19T14:37:30;27.90;57.40
33825;DHT22;20127;48.962;8.342;2023-09-19T14:40:33;27.80;57.20
33825;DHT22;20127;48.962;8.342;2023-09-19T14:43:36;27.70;56.80
33825;DHT22;20127;48.962;8.342;2023-09-19T14:46:38;27.20;57.80
33825;DHT22;20127;48.962;8.342;2023-09-19T14:49:40;26.90;58.20
33825;DHT22;20127;48.962;8.342;2023-09-19T14:52:41;26.50;58.00
33825;DHT22;20127;48.962;8.342;2023-09-19T14:55:45;26.10;58.70
33825;DHT22;20127;48.962;8.342;2023-09-19T14:58:48;25.60;58.90
33825;DHT22;20127;48.962;8.342;2023-09-19T15:01:50;25.20;60.10
33825;DHT22;20127;48.962;8.342;2023-09-19T15:04:52;25.00;60.00
33825;DHT22;20127;48.962;8.342;2023-09-19T15:07:53;24.70;60.60
33825;DHT22;20127;48.962;8.342;2023-09-19T15:10:57;24.50;61.40
33825;DHT22;20127;48.962;8.342;2023-09-19T15:14:04;24.40;62.10
33825;DHT22;20127;48.962;8.342;2023-09-19T15:17:06;24.40;62.60
33825;DHT22;20127;48.962;8.342;2023-09-19T15:20:08;24.40;62.90
33825;DHT22;20127;48.962;8.342;2023-09-19T15:23:09;24.30;63.10
33825;DHT22;20127;48.962;8.342;2023-09-19T15:26:15;24.30;63.50
33825;DHT22;20127;48.962;8.342;2023-09-19T15:29:20;24.40;63.90
33825;DHT22;20127;48.962;8.342;2023-09-19T15:32:22;24.30;63.90
33825;DHT22;20127;48.962;8.342;2023-09-19T15:35:24;24.30;64.30
33825;DHT22;20127;48.962;8.342;2023-09-19T15:38:26;24.40;64.70
33825;DHT22;20127;48.962;8.342;2023-09-19T15:41:31;24.30;64.80
33825;DHT22;20127;48.962;8.342;2023-09-19T15:44:33;24.10;65.10
33825;DHT22;20127;48.962;8.342;2023-09-19T15:47:37;24.00;65.40
33825;DHT22;20127;48.962;8.342;2023-09-19T15:50:39;24.00;65.80
33825;DHT22;20127;48.962;8.342;2023-09-19T15:53:44;24.00;66.10
33825;DHT22;20127;48.962;8.342;2023-09-19T15:56:48;24.00;66.50
33825;DHT22;20127;48.962;8.342;2023-09-19T15:59:52;24.00;67.10
33825;DHT22;20127;48.962;8.342;2023-09-19T16:02:53;24.00;67.40
33825;DHT22;20127;48.962;8.342;2023-09-19T16:05:55;24.10;67.60
33825;DHT22;20127;48.962;8.342;2023-09-19T16:08:58;24.10;68.50
33825;DHT22;20127;48.962;8.342;2023-09-19T16:12:03;24.10;68.40
33825;DHT22;20127;48.962;8.342;2023-09-19T16:15:05;24.10;68.90
33825;DHT22;20127;48.962;8.342;2023-09-19T16:18:11;24.10;69.20
33825;DHT22;20127;48.962;8.342;2023-09-19T16:21:13;24.00;69.60
33825;DHT22;20127;48.962;8.342;2023-09-19T16:24:15;24.00;70.00
33825;DHT22;20127;48.962;8.342;2023-09-19T16:27:18;23.90;70.20
33825;DHT22;20127;48.962;8.342;2023-09-19T16:30:21;23.80;70.20
33825;DHT22;20127;48.962;8.342;2023-09-19T16:33:23;23.70;70.40
33825;DHT22;20127;48.962;8.342;2023-09-19T16:36:25;23.60;70.60
33825;DHT22;20127;48.962;8.342;2023-09-19T16:39:27;23.50;70.90
33825;DHT22;20127;48.962;8.342;2023-09-19T16:42:30;23.50;71.10
33825;DHT22;20127;48.962;8.342;2023-09-19T16:45:31;23.40;71.40
33825;DHT22;20127;48.962;8.342;2023-09-19T16:48:35;23.30;71.60
33825;DHT22;20127;48.962;8.342;2023-09-19T16:51:37;23.30;71.70
33825;DHT22;20127;48.962;8.342;2023-09-19T16:54:40;23.20;71.90
33825;DHT22;20127;48.962;8.342;2023-09-19T16:57:44;23.20;72.10
33825;DHT22;20127;48.962;8.342;2023-09-19T17:00:46;23.10;72.30
33825;DHT22;20127;48.962;8.342;2023-09-19T17:03:48;23.00;72.40
33825;DHT22;20127;48.962;8.342;2023-09-19T17:06:52;23.00;72.70
33825;DHT22;20127;48.962;8.342;2023-09-19T17:09:54;22.90;73.10
33825;DHT22;20127;48.962;8.342;2023-09-19T17:12:57;22.70;73.40
33825;DHT22;20127;48.962;8.342;2023-09-19T17:16:00;22.60;74.00
33825;DHT22;20127;48.962;8.342;2023-09-19T17:19:02;22.50;74.60
33825;DHT22;20127;48.962;8.342;2023-09-19T17:22:04;22.30;75.20
33825;DHT22;20127;48.962;8.342;2023-09-19T17:25:07;22.10;75.80
33825;DHT22;20127;48.962;8.342;2023-09-19T17:28:10;22.00;76.30
33825;DHT22;20127;48.962;8.342;2023-09-19T17:31:13;21.80;77.10
33825;DHT22;20127;48.962;8.342;2023-09-19T17:34:15;21.60;77.90
33825;DHT22;20127;48.962;8.342;2023-09-19T17:37:17;21.50;78.60
33825;DHT22;20127;48.962;8.342;2023-09-19T17:40:19;21.40;79.30
33825;DHT22;20127;48.962;8.342;2023-09-19T17:43:22;21.20;80.00
33825;DHT22;20127;48.962;8.342;2023-09-19T17:46:24;21.00;80.50
33825;DHT22;20127;48.962;8.342;2023-09-19T17:49:29;20.90;81.20
33825;DHT22;20127;48.962;8.342;2023-09-19T17:52:31;20.80;81.90
33825;DHT22;20127;48.962;8.342;2023-09-19T17:55:36;20.60;82.50
33825;DHT22;20127;48.962;8.342;2023-09-19T17:58:41;20.50;83.20
33825;DHT22;20127;48.962;8.342;2023-09-19T18:01:43;20.40;83.70
33825;DHT22;20127;48.962;8.342;2023-09-19T18:04:45;20.30;84.90
33825;DHT22;20127;48.962;8.342;2023-09-19T18:07:47;20.20;84.70
33825;DHT22;20127;48.962;8.342;2023-09-19T18:10:49;20.10;85.20
33825;DHT22;20127;48.962;8.342;2023-09-19T18:13:52;20.00;85.80
33825;DHT22;20127;48.962;8.342;2023-09-19T18:16:54;19.80;86.50
33825;DHT22;20127;48.962;8.342;2023-09-19T18:19:58;19.70;87.90
33825;DHT22;20127;48.962;8.342;2023-09-19T18:22:59;19.40;88.00
33825;DHT22;20127;48.962;8.342;2023-09-19T18:26:01;19.10;89.20
33825;DHT22;20127;48.962;8.342;2023-09-19T18:29:07;18.90;90.10
33825;DHT22;20127;48.962;8.342;2023-09-19T18:32:10;18.90;90.50
33825;DHT22;20127;48.962;8.342;2023-09-19T18:35:12;18.80;90.90
33825;DHT22;20127;48.962;8.342;2023-09-19T18:38:15;18.70;91.20
33825;DHT22;20127;48.962;8.342;2023-09-19T18:41:17;18.60;91.60
33825;DHT22;20127;48.962;8.342;2023-09-19T18:44:20;18.40;91.90
33825;DHT22;20127;48.962;8.342;2023-09-19T18:47:22;18.20;92.30
33825;DHT22;20127;48.962;8.342;2023-09-19T18:50:28;18.20;92.70
33825;DHT22;20127;48.962;8.342;2023-09-19T18:53:29;18.10;92.80
33825;DHT22;20127;48.962;8.342;2023-09-19T18:56:31;18.10;93.10
33825;DHT22;20127;48.962;8.342;2023-09-19T18:59:36;18.00;93.40
33825;DHT22;20127;48.962;8.342;2023-09-19T19:02:38;18.00;93.60
33825;DHT22;20127;48.962;8.342;2023-09-19T19:05:39;18.00;93.70
33825;DHT22;20127;48.962;8.342;2023-09-19T19:08:42;18.00;94.00
33825;DHT22;20127;48.962;8.342;2023-09-19T19:11:44;18.00;94.20
33825;DHT22;20127;48.962;8.342;2023-09-19T19:14:47;17.80;94.30
33825;DHT22;20127;48.962;8.342;2023-09-19T19:17:49;17.90;94.50
33825;DHT22;20127;48.962;8.342;2023-09-19T19:20:57;17.90;94.70
33825;DHT22;20127;48.962;8.342;2023-09-19T19:23:58;17.80;95.00
33825;DHT22;20127;48.962;8.342;2023-09-19T19:27:00;17.70;95.30
33825;DHT22;20127;48.962;8.342;2023-09-19T19:30:04;17.60;95.70
33825;DHT22;20127;48.962;8.342;2023-09-19T19:33:06;17.60;96.00